sensor_id;sensor_type;location;lat;lon;timestamp;P1;durP1;ratioP1;P2;durP2;ratioP2
14470;SDS011;7321;50.802;4.336;2024-02-23T00:00:01;2.87;;;1.17;;
14470;SDS011;7321;50.802;4.336;2024-02-23T00:02:31;3.63;;;1.27;;
14470;SDS011;7321;50.802;4.336;2024-02-23T00:04:57;2.37;;;1.10;;
14470;SDS011;7321;50.802;4.336;2024-02-23T00:07:23;3.43;;;1.00;;
14470;SDS011;7321;50.802;4.336;2024-02-23T00:09:49;3.80;;;1.10;;
14470;SDS011;7321;50.802;4.336;2024-02-23T00:12:15;2.47;;;0.73;;
14470;SDS011;7321;50.802;4.336;2024-02-23T00:14:44;2.27;;;0.93;;
14470;SDS011;7321;50.802;4.336;2024-02-23T00:17:09;2.27;;;1.00;;
14470;SDS011;7321;50.802;4.336;2024-02-23T00:19:36;3.03;;;0.70;;
14470;SDS011;7321;50.802;4.336;2024-02-23T00:22:02;1.87;;;0.50;;
14470;SDS011;7321;50.802;4.336;2024-02-23T00:24:28;2.17;;;0.87;;
14470;SDS011;7321;50.802;4.336;2024-02-23T00:26:54;2.77;;;0.97;;
14470;SDS011;7321;50.802;4.336;2024-02-23T00:29:20;1.37;;;0.73;;
14470;SDS011;7321;50.802;4.336;2024-02-23T00:31:47;2.37;;;0.67;;
14470;SDS011;7321;50.802;4.336;2024-02-23T00:34:13;3.07;;;0.93;;
14470;SDS011;7321;50.802;4.336;2024-02-23T00:36:43;2.70;;;0.90;;
14470;SDS011;7321;50.802;4.336;2024-02-23T00:39:14;2.57;;;0.50;;
14470;SDS011;7321;50.802;4.336;2024-02-23T00:41:43;2.00;;;0.80;;
14470;SDS011;7321;50.802;4.336;2024-02-23T00:44:09;4.63;;;1.13;;
14470;SDS011;7321;50.802;4.336;2024-02-23T00:46:35;2.30;;;0.40;;
14470;SDS011;7321;50.802;4.336;2024-02-23T00:49:01;2.63;;;0.70;;
14470;SDS011;7321;50.802;4.336;2024-02-23T00:51:27;3.63;;;0.83;;
14470;SDS011;7321;50.802;4.336;2024-02-23T00:53:53;4.50;;;1.10;;
14470;SDS011;7321;50.802;4.336;2024-02-23T00:56:19;1.23;;;0.50;;
14470;SDS011;7321;50.802;4.336;2024-02-23T00:58:44;8.80;;;1.37;;
14470;SDS011;7321;50.802;4.336;2024-02-23T01:01:10;1.77;;;0.80;;
14470;SDS011;7321;50.802;4.336;2024-02-23T01:03:37;1.23;;;0.97;;
14470;SDS011;7321;50.802;4.336;2024-02-23T01:06:03;3.03;;;1.00;;
14470;SDS011;7321;50.802;4.336;2024-02-23T01:08:32;3.33;;;1.13;;
14470;SDS011;7321;50.802;4.336;2024-02-23T01:10:58;2.87;;;0.90;;
14470;SDS011;7321;50.802;4.336;2024-02-23T01:13:23;1.37;;;0.63;;
14470;SDS011;7321;50.802;4.336;2024-02-23T01:15:49;3.50;;;0.67;;
14470;SDS011;7321;50.802;4.336;2024-02-23T01:18:15;2.13;;;0.70;;
14470;SDS011;7321;50.802;4.336;2024-02-23T01:20:44;3.43;;;0.83;;
14470;SDS011;7321;50.802;4.336;2024-02-23T01:23:11;2.63;;;0.60;;
14470;SDS011;7321;50.802;4.336;2024-02-23T01:25:37;3.30;;;0.90;;
14470;SDS011;7321;50.802;4.336;2024-02-23T01:28:06;1.50;;;0.93;;
14470;SDS011;7321;50.802;4.336;2024-02-23T01:30:31;4.17;;;0.80;;
14470;SDS011;7321;50.802;4.336;2024-02-23T01:32:57;2.50;;;0.73;;
14470;SDS011;7321;50.802;4.336;2024-02-23T01:35:23;4.37;;;1.00;;
14470;SDS011;7321;50.802;4.336;2024-02-23T01:37:50;4.73;;;0.87;;
14470;SDS011;7321;50.802;4.336;2024-02-23T01:40:15;5.63;;;1.07;;
14470;SDS011;7321;50.802;4.336;2024-02-23T01:42:41;2.27;;;0.80;;
14470;SDS011;7321;50.802;4.336;2024-02-23T01:45:07;3.67;;;1.27;;
14470;SDS011;7321;50.802;4.336;2024-02-23T01:47:33;2.10;;;1.10;;
14470;SDS011;7321;50.802;4.336;2024-02-23T01:49:59;2.03;;;0.93;;
14470;SDS011;7321;50.802;4.336;2024-02-23T01:52:25;3.40;;;1.00;;
14470;SDS011;7321;50.802;4.336;2024-02-23T01:54:51;3.67;;;1.30;;
14470;SDS011;7321;50.802;4.336;2024-02-23T01:57:18;4.00;;;1.03;;
14470;SDS011;7321;50.802;4.336;2024-02-23T01:59:46;3.73;;;1.20;;
14470;SDS011;7321;50.802;4.336;2024-02-23T02:02:12;2.90;;;1.10;;
14470;SDS011;7321;50.802;4.336;2024-02-23T02:04:41;2.13;;;0.70;;
14470;SDS011;7321;50.802;4.336;2024-02-23T02:07:07;5.77;;;1.00;;
14470;SDS011;7321;50.802;4.336;2024-02-23T02:09:33;3.27;;;1.23;;
14470;SDS011;7321;50.802;4.336;2024-02-23T02:12:01;3.83;;;1.30;;
14470;SDS011;7321;50.802;4.336;2024-02-23T02:14:27;2.80;;;1.30;;
14470;SDS011;7321;50.802;4.336;2024-02-23T02:16:56;5.47;;;1.60;;
14470;SDS011;7321;50.802;4.336;2024-02-23T02:19:22;4.40;;;1.43;;
14470;SDS011;7321;50.802;4.336;2024-02-23T02:21:48;6.13;;;2.10;;
14470;SDS011;7321;50.802;4.336;2024-02-23T02:24:13;3.73;;;1.43;;
14470;SDS011;7321;50.802;4.336;2024-02-23T02:26:39;3.87;;;1.20;;
14470;SDS011;7321;50.802;4.336;2024-02-23T02:29:05;5.70;;;1.60;;
14470;SDS011;7321;50.802;4.336;2024-02-23T02:31:31;4.07;;;1.30;;
14470;SDS011;7321;50.802;4.336;2024-02-23T02:34:03;6.43;;;1.60;;
14470;SDS011;7321;50.802;4.336;2024-02-23T02:36:29;4.43;;;1.50;;
14470;SDS011;7321;50.802;4.336;2024-02-23T02:38:54;6.27;;;1.50;;
14470;SDS011;7321;50.802;4.336;2024-02-23T02:41:21;3.90;;;1.57;;
14470;SDS011;7321;50.802;4.336;2024-02-23T02:43:50;5.00;;;2.40;;
14470;SDS011;7321;50.802;4.336;2024-02-23T02:46:15;3.80;;;2.27;;
14470;SDS011;7321;50.802;4.336;2024-02-23T02:48:41;5.30;;;2.37;;
14470;SDS011;7321;50.802;4.336;2024-02-23T02:51:08;6.73;;;2.27;;
14470;SDS011;7321;50.802;4.336;2024-02-23T02:53:35;5.57;;;2.30;;
14470;SDS011;7321;50.802;4.336;2024-02-23T02:56:00;6.10;;;2.70;;
14470;SDS011;7321;50.802;4.336;2024-02-23T02:58:26;5.67;;;2.40;;
14470;SDS011;7321;50.802;4.336;2024-02-23T03:00:52;7.60;;;2.00;;
14470;SDS011;7321;50.802;4.336;2024-02-23T03:03:18;5.20;;;2.10;;
14470;SDS011;7321;50.802;4.336;2024-02-23T03:05:44;4.73;;;2.50;;
14470;SDS011;7321;50.802;4.336;2024-02-23T03:08:11;4.80;;;1.90;;
14470;SDS011;7321;50.802;4.336;2024-02-23T03:10:39;4.30;;;2.03;;
14470;SDS011;7321;50.802;4.336;2024-02-23T03:13:05;6.87;;;1.87;;
14470;SDS011;7321;50.802;4.336;2024-02-23T03:15:31;4.87;;;2.10;;
14470;SDS011;7321;50.802;4.336;2024-02-23T03:17:58;5.17;;;2.60;;
14470;SDS011;7321;50.802;4.336;2024-02-23T03:20:26;6.73;;;2.47;;
14470;SDS011;7321;50.802;4.336;2024-02-23T03:22:52;6.77;;;2.40;;
14470;SDS011;7321;50.802;4.336;2024-02-23T03:25:18;7.60;;;2.20;;
14470;SDS011;7321;50.802;4.336;2024-02-23T03:27:44;6.10;;;2.40;;
14470;SDS011;7321;50.802;4.336;2024-02-23T03:30:10;4.23;;;2.00;;
14470;SDS011;7321;50.802;4.336;2024-02-23T03:32:35;4.53;;;1.90;;
14470;SDS011;7321;50.802;4.336;2024-02-23T03:35:02;5.03;;;2.57;;
14470;SDS011;7321;50.802;4.336;2024-02-23T03:37:29;6.70;;;2.90;;
14470;SDS011;7321;50.802;4.336;2024-02-23T03:39:55;5.70;;;2.37;;
14470;SDS011;7321;50.802;4.336;2024-02-23T03:42:21;5.70;;;2.33;;
14470;SDS011;7321;50.802;4.336;2024-02-23T03:44:47;6.23;;;2.70;;
14470;SDS011;7321;50.802;4.336;2024-02-23T03:47:12;7.40;;;3.00;;
14470;SDS011;7321;50.802;4.336;2024-02-23T03:49:39;8.70;;;3.20;;
14470;SDS011;7321;50.802;4.336;2024-02-23T03:52:08;7.47;;;2.90;;
14470;SDS011;7321;50.802;4.336;2024-02-23T03:54:34;9.00;;;3.23;;
14470;SDS011;7321;50.802;4.336;2024-02-23T03:57:00;6.90;;;2.90;;
14470;SDS011;7321;50.802;4.336;2024-02-23T03:59:25;7.13;;;2.80;;
14470;SDS011;7321;50.802;4.336;2024-02-23T04:01:54;5.67;;;2.30;;
14470;SDS011;7321;50.802;4.336;2024-02-23T04:04:21;6.10;;;1.90;;
14470;SDS011;7321;50.802;4.336;2024-02-23T04:06:46;4.33;;;1.97;;
14470;SDS011;7321;50.802;4.336;2024-02-23T04:09:12;6.03;;;2.03;;
14470;SDS011;7321;50.802;4.336;2024-02-23T04:11:39;7.63;;;2.47;;
14470;SDS011;7321;50.802;4.336;2024-02-23T04:14:07;5.20;;;2.50;;
14470;SDS011;7321;50.802;4.336;2024-02-23T04:16:33;7.50;;;2.37;;
14470;SDS011;7321;50.802;4.336;2024-02-23T04:18:59;5.67;;;2.60;;
14470;SDS011;7321;50.802;4.336;2024-02-23T04:21:25;7.60;;;2.87;;
14470;SDS011;7321;50.802;4.336;2024-02-23T04:23:51;6.37;;;2.53;;
14470;SDS011;7321;50.802;4.336;2024-02-23T04:26:18;6.30;;;2.30;;
14470;SDS011;7321;50.802;4.336;2024-02-23T04:28:44;5.33;;;2.03;;
14470;SDS011;7321;50.802;4.336;2024-02-23T04:31:10;5.43;;;1.90;;
14470;SDS011;7321;50.802;4.336;2024-02-23T04:33:36;6.67;;;2.80;;
14470;SDS011;7321;50.802;4.336;2024-02-23T04:36:02;6.03;;;2.30;;
14470;SDS011;7321;50.802;4.336;2024-02-23T04:38:29;6.27;;;2.87;;
14470;SDS011;7321;50.802;4.336;2024-02-23T04:40:56;7.33;;;2.63;;
14470;SDS011;7321;50.802;4.336;2024-02-23T04:43:22;7.57;;;2.50;;
14470;SDS011;7321;50.802;4.336;2024-02-23T04:45:49;8.97;;;3.00;;
14470;SDS011;7321;50.802;4.336;2024-02-23T04:48:16;6.20;;;2.40;;
14470;SDS011;7321;50.802;4.336;2024-02-23T04:50:41;8.90;;;2.67;;
14470;SDS011;7321;50.802;4.336;2024-02-23T04:53:11;5.00;;;2.00;;
14470;SDS011;7321;50.802;4.336;2024-02-23T04:55:37;8.63;;;2.80;;
14470;SDS011;7321;50.802;4.336;2024-02-23T04:58:03;7.33;;;2.57;;
14470;SDS011;7321;50.802;4.336;2024-02-23T05:00:29;8.40;;;1.93;;
14470;SDS011;7321;50.802;4.336;2024-02-23T05:02:59;7.10;;;2.30;;
14470;SDS011;7321;50.802;4.336;2024-02-23T05:05:28;8.47;;;2.47;;
14470;SDS011;7321;50.802;4.336;2024-02-23T05:07:57;5.00;;;1.70;;
14470;SDS011;7321;50.802;4.336;2024-02-23T05:10:23;5.40;;;2.37;;
14470;SDS011;7321;50.802;4.336;2024-02-23T05:12:49;7.50;;;1.97;;
14470;SDS011;7321;50.802;4.336;2024-02-23T05:15:15;6.60;;;1.80;;
14470;SDS011;7321;50.802;4.336;2024-02-23T05:17:41;10.67;;;1.80;;
14470;SDS011;7321;50.802;4.336;2024-02-23T05:20:07;8.20;;;1.63;;
14470;SDS011;7321;50.802;4.336;2024-02-23T05:22:38;5.00;;;1.33;;
14470;SDS011;7321;50.802;4.336;2024-02-23T05:25:05;4.37;;;2.10;;
14470;SDS011;7321;50.802;4.336;2024-02-23T05:27:31;4.53;;;1.63;;
14470;SDS011;7321;50.802;4.336;2024-02-23T05:29:57;6.17;;;1.87;;
14470;SDS011;7321;50.802;4.336;2024-02-23T05:32:23;8.33;;;2.27;;
14470;SDS011;7321;50.802;4.336;2024-02-23T05:34:49;7.70;;;1.97;;
14470;SDS011;7321;50.802;4.336;2024-02-23T05:37:17;8.13;;;2.53;;
14470;SDS011;7321;50.802;4.336;2024-02-23T05:39:44;6.03;;;1.77;;
14470;SDS011;7321;50.802;4.336;2024-02-23T05:42:11;6.60;;;1.80;;
14470;SDS011;7321;50.802;4.336;2024-02-23T05:44:38;6.30;;;1.60;;
14470;SDS011;7321;50.802;4.336;2024-02-23T05:47:05;6.47;;;2.13;;
14470;SDS011;7321;50.802;4.336;2024-02-23T05:49:30;6.67;;;1.80;;
14470;SDS011;7321;50.802;4.336;2024-02-23T05:51:56;4.07;;;1.47;;
14470;SDS011;7321;50.802;4.336;2024-02-23T05:54:22;7.97;;;1.53;;
14470;SDS011;7321;50.802;4.336;2024-02-23T05:56:48;4.93;;;1.70;;
14470;SDS011;7321;50.802;4.336;2024-02-23T05:59:15;5.57;;;1.60;;
14470;SDS011;7321;50.802;4.336;2024-02-23T06:01:40;5.10;;;1.60;;
14470;SDS011;7321;50.802;4.336;2024-02-23T06:04:06;6.83;;;2.00;;
14470;SDS011;7321;50.802;4.336;2024-02-23T06:06:35;5.20;;;1.50;;
14470;SDS011;7321;50.802;4.336;2024-02-23T06:09:00;5.83;;;1.50;;
14470;SDS011;7321;50.802;4.336;2024-02-23T06:11:27;4.83;;;1.77;;
14470;SDS011;7321;50.802;4.336;2024-02-23T06:13:54;5.57;;;2.00;;
14470;SDS011;7321;50.802;4.336;2024-02-23T06:16:30;3.73;;;1.53;;
14470;SDS011;7321;50.802;4.336;2024-02-23T06:18:56;6.27;;;1.47;;
14470;SDS011;7321;50.802;4.336;2024-02-23T06:21:23;7.03;;;2.23;;
14470;SDS011;7321;50.802;4.336;2024-02-23T06:23:50;4.97;;;1.60;;
14470;SDS011;7321;50.802;4.336;2024-02-23T06:26:20;6.33;;;1.60;;
14470;SDS011;7321;50.802;4.336;2024-02-23T06:28:46;5.87;;;2.20;;
14470;SDS011;7321;50.802;4.336;2024-02-23T06:31:14;6.00;;;2.17;;
14470;SDS011;7321;50.802;4.336;2024-02-23T06:33:40;6.77;;;2.43;;
14470;SDS011;7321;50.802;4.336;2024-02-23T06:36:09;7.53;;;2.20;;
14470;SDS011;7321;50.802;4.336;2024-02-23T06:38:34;4.47;;;1.23;;
14470;SDS011;7321;50.802;4.336;2024-02-23T06:41:00;10.37;;;2.67;;
14470;SDS011;7321;50.802;4.336;2024-02-23T06:43:26;5.10;;;1.70;;
14470;SDS011;7321;50.802;4.336;2024-02-23T06:45:55;4.47;;;1.47;;
14470;SDS011;7321;50.802;4.336;2024-02-23T06:48:20;4.17;;;1.70;;
14470;SDS011;7321;50.802;4.336;2024-02-23T06:50:49;4.00;;;1.40;;
14470;SDS011;7321;50.802;4.336;2024-02-23T06:53:15;4.43;;;1.60;;
14470;SDS011;7321;50.802;4.336;2024-02-23T06:55:41;6.00;;;1.97;;
14470;SDS011;7321;50.802;4.336;2024-02-23T06:58:07;7.73;;;1.80;;
14470;SDS011;7321;50.802;4.336;2024-02-23T07:00:34;7.37;;;2.10;;
14470;SDS011;7321;50.802;4.336;2024-02-23T07:02:59;5.93;;;2.33;;
14470;SDS011;7321;50.802;4.336;2024-02-23T07:05:28;4.77;;;1.83;;
14470;SDS011;7321;50.802;4.336;2024-02-23T07:07:54;8.53;;;2.50;;
14470;SDS011;7321;50.802;4.336;2024-02-23T07:10:20;6.50;;;1.93;;
14470;SDS011;7321;50.802;4.336;2024-02-23T07:12:47;5.43;;;1.60;;
14470;SDS011;7321;50.802;4.336;2024-02-23T07:15:14;8.37;;;2.00;;
14470;SDS011;7321;50.802;4.336;2024-02-23T07:17:39;7.90;;;1.90;;
14470;SDS011;7321;50.802;4.336;2024-02-23T07:20:05;7.07;;;1.73;;
14470;SDS011;7321;50.802;4.336;2024-02-23T07:22:31;6.87;;;1.63;;
14470;SDS011;7321;50.802;4.336;2024-02-23T07:24:57;8.67;;;1.83;;
14470;SDS011;7321;50.802;4.336;2024-02-23T07:27:23;6.20;;;2.00;;
14470;SDS011;7321;50.802;4.336;2024-02-23T07:29:49;6.70;;;1.60;;
14470;SDS011;7321;50.802;4.336;2024-02-23T07:32:15;8.30;;;1.83;;
14470;SDS011;7321;50.802;4.336;2024-02-23T07:34:40;6.97;;;2.00;;
14470;SDS011;7321;50.802;4.336;2024-02-23T07:37:06;5.43;;;1.80;;
14470;SDS011;7321;50.802;4.336;2024-02-23T07:39:32;4.30;;;2.27;;
14470;SDS011;7321;50.802;4.336;2024-02-23T07:41:58;6.00;;;1.60;;
14470;SDS011;7321;50.802;4.336;2024-02-23T07:44:23;5.70;;;1.87;;
14470;SDS011;7321;50.802;4.336;2024-02-23T07:46:50;8.63;;;1.70;;
14470;SDS011;7321;50.802;4.336;2024-02-23T07:49:19;6.10;;;2.03;;
14470;SDS011;7321;50.802;4.336;2024-02-23T07:51:45;7.87;;;1.60;;
14470;SDS011;7321;50.802;4.336;2024-02-23T07:54:11;6.63;;;1.87;;
14470;SDS011;7321;50.802;4.336;2024-02-23T07:56:36;7.07;;;1.90;;
14470;SDS011;7321;50.802;4.336;2024-02-23T07:59:02;10.77;;;1.80;;
14470;SDS011;7321;50.802;4.336;2024-02-23T08:01:28;8.60;;;2.27;;
14470;SDS011;7321;50.802;4.336;2024-02-23T08:03:54;5.13;;;1.70;;
14470;SDS011;7321;50.802;4.336;2024-02-23T08:06:20;4.00;;;1.53;;
14470;SDS011;7321;50.802;4.336;2024-02-23T08:08:46;6.20;;;1.67;;
14470;SDS011;7321;50.802;4.336;2024-02-23T08:11:12;7.63;;;1.90;;
14470;SDS011;7321;50.802;4.336;2024-02-23T08:13:41;7.57;;;2.00;;
14470;SDS011;7321;50.802;4.336;2024-02-23T08:16:07;6.80;;;1.83;;
14470;SDS011;7321;50.802;4.336;2024-02-23T08:18:33;4.33;;;1.70;;
14470;SDS011;7321;50.802;4.336;2024-02-23T08:20:58;6.83;;;1.90;;
14470;SDS011;7321;50.802;4.336;2024-02-23T08:23:27;6.67;;;2.03;;
14470;SDS011;7321;50.802;4.336;2024-02-23T08:25:53;5.80;;;1.70;;
14470;SDS011;7321;50.802;4.336;2024-02-23T08:28:19;8.30;;;1.90;;
14470;SDS011;7321;50.802;4.336;2024-02-23T08:30:44;5.40;;;1.80;;
14470;SDS011;7321;50.802;4.336;2024-02-23T08:33:10;6.00;;;1.80;;
14470;SDS011;7321;50.802;4.336;2024-02-23T08:35:39;5.90;;;1.53;;
14470;SDS011;7321;50.802;4.336;2024-02-23T08:38:05;4.37;;;1.60;;
14470;SDS011;7321;50.802;4.336;2024-02-23T08:40:32;5.07;;;2.10;;
14470;SDS011;7321;50.802;4.336;2024-02-23T08:42:58;3.33;;;1.60;;
14470;SDS011;7321;50.802;4.336;2024-02-23T08:45:23;4.07;;;1.30;;
14470;SDS011;7321;50.802;4.336;2024-02-23T08:47:49;5.90;;;2.00;;
14470;SDS011;7321;50.802;4.336;2024-02-23T08:50:15;5.47;;;2.00;;
14470;SDS011;7321;50.802;4.336;2024-02-23T08:52:41;4.20;;;1.80;;
14470;SDS011;7321;50.802;4.336;2024-02-23T08:55:07;5.00;;;2.00;;
14470;SDS011;7321;50.802;4.336;2024-02-23T08:57:33;5.87;;;2.27;;
14470;SDS011;7321;50.802;4.336;2024-02-23T08:59:59;3.00;;;1.53;;
14470;SDS011;7321;50.802;4.336;2024-02-23T09:02:25;8.10;;;2.00;;
14470;SDS011;7321;50.802;4.336;2024-02-23T09:04:51;5.30;;;2.17;;
14470;SDS011;7321;50.802;4.336;2024-02-23T09:07:16;4.03;;;1.80;;
14470;SDS011;7321;50.802;4.336;2024-02-23T09:09:46;4.87;;;2.07;;
14470;SDS011;7321;50.802;4.336;2024-02-23T09:12:14;6.30;;;2.20;;
14470;SDS011;7321;50.802;4.336;2024-02-23T09:14:41;3.73;;;2.07;;
14470;SDS011;7321;50.802;4.336;2024-02-23T09:17:08;3.10;;;1.50;;
14470;SDS011;7321;50.802;4.336;2024-02-23T09:19:35;6.60;;;2.03;;
14470;SDS011;7321;50.802;4.336;2024-02-23T09:22:04;6.67;;;1.93;;
14470;SDS011;7321;50.802;4.336;2024-02-23T09:24:30;6.33;;;1.93;;
14470;SDS011;7321;50.802;4.336;2024-02-23T09:26:56;6.33;;;1.87;;
14470;SDS011;7321;50.802;4.336;2024-02-23T09:29:21;4.77;;;1.47;;
14470;SDS011;7321;50.802;4.336;2024-02-23T09:31:47;6.60;;;2.10;;
14470;SDS011;7321;50.802;4.336;2024-02-23T09:34:13;4.50;;;1.70;;
14470;SDS011;7321;50.802;4.336;2024-02-23T09:36:39;5.43;;;2.23;;
14470;SDS011;7321;50.802;4.336;2024-02-23T09:39:05;7.33;;;2.00;;
14470;SDS011;7321;50.802;4.336;2024-02-23T09:41:30;6.93;;;2.10;;
14470;SDS011;7321;50.802;4.336;2024-02-23T09:44:00;8.17;;;2.30;;
14470;SDS011;7321;50.802;4.336;2024-02-23T09:46:27;8.83;;;2.07;;
14470;SDS011;7321;50.802;4.336;2024-02-23T09:48:54;4.63;;;2.03;;
14470;SDS011;7321;50.802;4.336;2024-02-23T09:51:21;7.87;;;2.43;;
14470;SDS011;7321;50.802;4.336;2024-02-23T09:53:51;7.87;;;2.47;;
14470;SDS011;7321;50.802;4.336;2024-02-23T09:56:17;5.73;;;2.30;;
14470;SDS011;7321;50.802;4.336;2024-02-23T09:58:45;6.10;;;2.57;;
14470;SDS011;7321;50.802;4.336;2024-02-23T10:01:14;5.23;;;2.30;;
14470;SDS011;7321;50.802;4.336;2024-02-23T10:03:44;5.27;;;2.20;;
14470;SDS011;7321;50.802;4.336;2024-02-23T10:06:11;4.53;;;2.60;;
14470;SDS011;7321;50.802;4.336;2024-02-23T10:08:36;5.63;;;2.50;;
14470;SDS011;7321;50.802;4.336;2024-02-23T10:11:02;6.47;;;2.50;;
14470;SDS011;7321;50.802;4.336;2024-02-23T10:13:29;8.20;;;2.90;;
14470;SDS011;7321;50.802;4.336;2024-02-23T10:15:55;6.83;;;3.20;;
14470;SDS011;7321;50.802;4.336;2024-02-23T10:18:22;8.40;;;2.67;;
14470;SDS011;7321;50.802;4.336;2024-02-23T10:20:48;5.93;;;2.30;;
14470;SDS011;7321;50.802;4.336;2024-02-23T10:23:18;6.27;;;2.03;;
14470;SDS011;7321;50.802;4.336;2024-02-23T10:25:45;4.50;;;2.20;;
14470;SDS011;7321;50.802;4.336;2024-02-23T10:28:11;6.73;;;2.33;;
14470;SDS011;7321;50.802;4.336;2024-02-23T10:30:37;4.63;;;1.90;;
14470;SDS011;7321;50.802;4.336;2024-02-23T10:33:06;6.37;;;2.30;;
14470;SDS011;7321;50.802;4.336;2024-02-23T10:35:33;7.13;;;2.60;;
14470;SDS011;7321;50.802;4.336;2024-02-23T10:38:05;5.33;;;2.27;;
14470;SDS011;7321;50.802;4.336;2024-02-23T10:40:35;5.63;;;1.90;;
14470;SDS011;7321;50.802;4.336;2024-02-23T10:43:06;6.17;;;2.27;;
14470;SDS011;7321;50.802;4.336;2024-02-23T10:45:38;4.77;;;2.20;;
14470;SDS011;7321;50.802;4.336;2024-02-23T10:48:06;5.60;;;2.30;;
14470;SDS011;7321;50.802;4.336;2024-02-23T10:50:34;4.50;;;2.27;;
14470;SDS011;7321;50.802;4.336;2024-02-23T10:53:03;5.77;;;2.10;;
14470;SDS011;7321;50.802;4.336;2024-02-23T10:55:32;5.20;;;2.23;;
14470;SDS011;7321;50.802;4.336;2024-02-23T10:57:58;4.67;;;2.27;;
14470;SDS011;7321;50.802;4.336;2024-02-23T11:00:25;9.07;;;2.37;;
14470;SDS011;7321;50.802;4.336;2024-02-23T11:02:51;4.23;;;2.13;;
14470;SDS011;7321;50.802;4.336;2024-02-23T11:05:19;6.40;;;2.10;;
14470;SDS011;7321;50.802;4.336;2024-02-23T11:07:46;6.20;;;2.27;;
14470;SDS011;7321;50.802;4.336;2024-02-23T11:10:16;6.13;;;1.80;;
14470;SDS011;7321;50.802;4.336;2024-02-23T11:12:43;4.43;;;1.83;;
14470;SDS011;7321;50.802;4.336;2024-02-23T11:15:09;10.13;;;2.40;;
14470;SDS011;7321;50.802;4.336;2024-02-23T11:17:50;3.40;;;1.93;;
14470;SDS011;7321;50.802;4.336;2024-02-23T11:20:16;7.23;;;2.57;;
14470;SDS011;7321;50.802;4.336;2024-02-23T11:22:42;6.73;;;2.10;;
14470;SDS011;7321;50.802;4.336;2024-02-23T11:25:08;5.17;;;2.30;;
14470;SDS011;7321;50.802;4.336;2024-02-23T11:27:35;6.50;;;2.47;;
14470;SDS011;7321;50.802;4.336;2024-02-23T11:30:03;5.53;;;2.47;;
14470;SDS011;7321;50.802;4.336;2024-02-23T11:32:43;3.20;;;2.07;;
14470;SDS011;7321;50.802;4.336;2024-02-23T11:35:19;6.97;;;2.53;;
14470;SDS011;7321;50.802;4.336;2024-02-23T11:37:54;6.53;;;2.60;;
14470;SDS011;7321;50.802;4.336;2024-02-23T11:40:25;6.27;;;2.10;;
14470;SDS011;7321;50.802;4.336;2024-02-23T11:42:51;5.73;;;2.83;;
14470;SDS011;7321;50.802;4.336;2024-02-23T11:45:19;5.50;;;2.40;;
14470;SDS011;7321;50.802;4.336;2024-02-23T11:47:45;3.07;;;2.00;;
14470;SDS011;7321;50.802;4.336;2024-02-23T11:50:11;7.67;;;2.20;;
14470;SDS011;7321;50.802;4.336;2024-02-23T11:52:37;6.97;;;2.53;;
14470;SDS011;7321;50.802;4.336;2024-02-23T11:55:04;6.60;;;2.40;;
14470;SDS011;7321;50.802;4.336;2024-02-23T11:57:31;4.87;;;2.33;;
14470;SDS011;7321;50.802;4.336;2024-02-23T11:59:58;7.10;;;2.93;;
14470;SDS011;7321;50.802;4.336;2024-02-23T12:02:24;4.83;;;2.80;;
14470;SDS011;7321;50.802;4.336;2024-02-23T12:04:49;5.13;;;2.77;;
14470;SDS011;7321;50.802;4.336;2024-02-23T12:07:15;6.07;;;2.93;;
14470;SDS011;7321;50.802;4.336;2024-02-23T12:09:42;4.57;;;2.83;;
14470;SDS011;7321;50.802;4.336;2024-02-23T12:12:08;5.00;;;3.10;;
14470;SDS011;7321;50.802;4.336;2024-02-23T12:14:38;4.87;;;3.00;;
14470;SDS011;7321;50.802;4.336;2024-02-23T12:17:05;8.27;;;3.50;;
14470;SDS011;7321;50.802;4.336;2024-02-23T12:19:40;8.50;;;3.13;;
14470;SDS011;7321;50.802;4.336;2024-02-23T12:22:08;8.27;;;3.30;;
14470;SDS011;7321;50.802;4.336;2024-02-23T12:24:36;5.07;;;2.67;;
14470;SDS011;7321;50.802;4.336;2024-02-23T12:27:01;3.23;;;2.30;;
14470;SDS011;7321;50.802;4.336;2024-02-23T12:29:27;5.87;;;2.77;;
14470;SDS011;7321;50.802;4.336;2024-02-23T12:32:06;6.43;;;2.37;;
14470;SDS011;7321;50.802;4.336;2024-02-23T12:34:32;6.67;;;2.70;;
14470;SDS011;7321;50.802;4.336;2024-02-23T12:36:58;5.90;;;2.33;;
14470;SDS011;7321;50.802;4.336;2024-02-23T12:39:24;4.97;;;2.60;;
14470;SDS011;7321;50.802;4.336;2024-02-23T12:41:50;4.37;;;1.90;;
14470;SDS011;7321;50.802;4.336;2024-02-23T12:44:16;4.33;;;2.10;;
14470;SDS011;7321;50.802;4.336;2024-02-23T12:46:42;4.10;;;2.40;;
14470;SDS011;7321;50.802;4.336;2024-02-23T12:49:08;3.80;;;2.23;;
14470;SDS011;7321;50.802;4.336;2024-02-23T12:51:34;6.90;;;2.30;;
14470;SDS011;7321;50.802;4.336;2024-02-23T12:54:00;5.37;;;2.43;;
14470;SDS011;7321;50.802;4.336;2024-02-23T12:56:26;5.87;;;2.70;;
14470;SDS011;7321;50.802;4.336;2024-02-23T12:58:52;5.57;;;2.07;;
14470;SDS011;7321;50.802;4.336;2024-02-23T13:01:22;7.53;;;2.30;;
14470;SDS011;7321;50.802;4.336;2024-02-23T13:03:48;5.47;;;1.67;;
14470;SDS011;7321;50.802;4.336;2024-02-23T13:06:14;4.03;;;1.83;;
14470;SDS011;7321;50.802;4.336;2024-02-23T13:08:40;6.37;;;2.00;;
14470;SDS011;7321;50.802;4.336;2024-02-23T13:11:07;3.37;;;1.90;;
14470;SDS011;7321;50.802;4.336;2024-02-23T13:13:33;4.30;;;1.87;;
14470;SDS011;7321;50.802;4.336;2024-02-23T13:16:00;4.90;;;1.83;;
14470;SDS011;7321;50.802;4.336;2024-02-23T13:18:26;5.70;;;1.97;;
14470;SDS011;7321;50.802;4.336;2024-02-23T13:20:51;5.00;;;1.73;;
14470;SDS011;7321;50.802;4.336;2024-02-23T13:23:17;6.30;;;2.00;;
14470;SDS011;7321;50.802;4.336;2024-02-23T13:25:43;3.87;;;1.47;;
14470;SDS011;7321;50.802;4.336;2024-02-23T13:28:10;6.67;;;1.60;;
14470;SDS011;7321;50.802;4.336;2024-02-23T13:30:36;4.27;;;1.80;;
14470;SDS011;7321;50.802;4.336;2024-02-23T13:33:02;7.73;;;2.00;;
14470;SDS011;7321;50.802;4.336;2024-02-23T13:35:29;7.67;;;2.83;;
14470;SDS011;7321;50.802;4.336;2024-02-23T13:37:56;4.90;;;1.70;;
14470;SDS011;7321;50.802;4.336;2024-02-23T13:40:22;8.17;;;2.20;;
14470;SDS011;7321;50.802;4.336;2024-02-23T13:42:48;6.27;;;1.80;;
14470;SDS011;7321;50.802;4.336;2024-02-23T13:45:15;5.30;;;2.10;;
14470;SDS011;7321;50.802;4.336;2024-02-23T13:47:42;5.13;;;2.13;;
14470;SDS011;7321;50.802;4.336;2024-02-23T13:50:09;5.50;;;2.07;;
14470;SDS011;7321;50.802;4.336;2024-02-23T13:52:35;4.90;;;1.93;;
14470;SDS011;7321;50.802;4.336;2024-02-23T13:55:02;4.40;;;2.13;;
14470;SDS011;7321;50.802;4.336;2024-02-23T13:57:28;3.77;;;1.90;;
14470;SDS011;7321;50.802;4.336;2024-02-23T13:59:54;2.73;;;1.70;;
14470;SDS011;7321;50.802;4.336;2024-02-23T14:02:26;4.73;;;1.80;;
14470;SDS011;7321;50.802;4.336;2024-02-23T14:04:59;4.37;;;1.90;;
14470;SDS011;7321;50.802;4.336;2024-02-23T14:07:32;6.47;;;2.17;;
14470;SDS011;7321;50.802;4.336;2024-02-23T14:09:58;5.47;;;1.60;;
14470;SDS011;7321;50.802;4.336;2024-02-23T14:12:24;2.70;;;1.40;;
14470;SDS011;7321;50.802;4.336;2024-02-23T14:14:50;3.47;;;1.50;;
14470;SDS011;7321;50.802;4.336;2024-02-23T14:17:16;4.43;;;1.33;;
14470;SDS011;7321;50.802;4.336;2024-02-23T14:19:42;5.70;;;1.60;;
14470;SDS011;7321;50.802;4.336;2024-02-23T14:22:08;5.53;;;1.87;;
14470;SDS011;7321;50.802;4.336;2024-02-23T14:24:33;5.00;;;1.77;;
14470;SDS011;7321;50.802;4.336;2024-02-23T14:26:59;4.93;;;1.57;;
14470;SDS011;7321;50.802;4.336;2024-02-23T14:29:25;3.87;;;1.33;;
14470;SDS011;7321;50.802;4.336;2024-02-23T14:31:52;3.50;;;1.37;;
14470;SDS011;7321;50.802;4.336;2024-02-23T14:34:18;3.50;;;1.00;;
14470;SDS011;7321;50.802;4.336;2024-02-23T14:36:45;5.60;;;1.13;;
14470;SDS011;7321;50.802;4.336;2024-02-23T14:39:11;1.20;;;0.73;;
14470;SDS011;7321;50.802;4.336;2024-02-23T14:41:38;5.67;;;1.40;;
14470;SDS011;7321;50.802;4.336;2024-02-23T14:44:04;3.93;;;1.00;;
14470;SDS011;7321;50.802;4.336;2024-02-23T14:46:30;3.03;;;1.23;;
14470;SDS011;7321;50.802;4.336;2024-02-23T14:48:56;2.23;;;1.10;;
14470;SDS011;7321;50.802;4.336;2024-02-23T14:51:22;3.13;;;1.83;;
14470;SDS011;7321;50.802;4.336;2024-02-23T14:53:47;4.97;;;1.43;;
14470;SDS011;7321;50.802;4.336;2024-02-23T14:56:13;1.80;;;1.20;;